createdAt,value
2019-03-10T00:00:21.665Z,9.58
2019-03-10T00:01:21.649Z,9.56
2019-03-10T00:02:21.649Z,9.73
2019-03-10T00:03:21.748Z,9.62
2019-03-10T00:04:21.650Z,9.67
2019-03-10T00:05:21.748Z,9.74
2019-03-10T00:06:21.675Z,9.67
2019-03-10T00:07:21.651Z,9.73
2019-03-10T00:08:21.797Z,9.7
2019-03-10T00:09:21.692Z,9.76
2019-03-10T00:10:21.672Z,9.73
2019-03-10T00:11:21.709Z,9.69
2019-03-10T00:12:21.666Z,9.76
2019-03-10T00:13:21.700Z,9.81
2019-03-10T00:14:21.669Z,9.73
2019-03-10T00:15:21.695Z,9.9
2019-03-10T00:16:21.765Z,9.84
2019-03-10T00:17:21.634Z,9.77
2019-03-10T00:18:21.697Z,9.8
2019-03-10T00:19:21.803Z,9.84
2019-03-10T00:20:21.706Z,9.81
2019-03-10T00:21:21.690Z,9.74
2019-03-10T00:22:21.671Z,9.85
2019-03-10T00:23:21.724Z,9.92
2019-03-10T00:24:21.710Z,9.95
2019-03-10T00:25:22.036Z,9.91
2019-03-10T00:26:23.781Z,9.77
2019-03-10T00:27:21.742Z,9.95
2019-03-10T00:28:21.759Z,9.87
2019-03-10T00:29:21.701Z,9.88
2019-03-10T00:30:21.808Z,9.82
2019-03-10T00:31:21.869Z,9.94
2019-03-10T00:32:21.693Z,9.91
2019-03-10T00:33:21.726Z,9.94
2019-03-10T00:34:22.581Z,9.88
2019-03-10T00:35:21.739Z,9.9
2019-03-10T00:36:21.727Z,9.88
2019-03-10T00:37:21.730Z,9.87
2019-03-10T00:38:21.796Z,9.9
2019-03-10T00:39:21.874Z,9.87
2019-03-10T00:40:21.719Z,9.87
2019-03-10T00:41:21.724Z,9.99
2019-03-10T00:42:21.837Z,9.91
2019-03-10T00:43:21.686Z,10
2019-03-10T00:44:21.743Z,10.03
2019-03-10T00:45:21.822Z,10.02
2019-03-10T00:46:21.777Z,10.06
2019-03-10T00:47:21.798Z,10.05
2019-03-10T00:48:21.893Z,9.99
2019-03-10T00:49:21.732Z,10.05
2019-03-10T00:50:21.884Z,10.09
2019-03-10T00:51:21.710Z,10.05
2019-03-10T00:52:21.773Z,10.09
2019-03-10T00:53:21.787Z,10.02
2019-03-10T00:54:21.736Z,10.03
2019-03-10T00:55:21.714Z,10.05
2019-03-10T00:56:21.845Z,10.05
2019-03-10T00:57:21.766Z,10.05
2019-03-10T00:58:21.754Z,10.1
2019-03-10T00:59:21.764Z,10.09
2019-03-10T01:00:21.728Z,10.09
2019-03-10T01:01:21.803Z,10.12
2019-03-10T01:02:21.830Z,10.18
2019-03-10T01:03:21.787Z,10.15
2019-03-10T01:04:21.739Z,10.18
2019-03-10T01:05:21.809Z,10.21
2019-03-10T01:06:21.807Z,10.18
2019-03-10T01:07:21.812Z,10.06
2019-03-10T01:08:21.805Z,10.2
2019-03-10T01:09:21.803Z,10.12
2019-03-10T01:10:21.760Z,10.2
2019-03-10T01:11:21.717Z,10.23
2019-03-10T01:12:21.828Z,10.2
2019-03-10T01:13:21.731Z,10.2
2019-03-10T01:14:21.830Z,10.1
2019-03-10T01:15:21.711Z,10.06
2019-03-10T01:16:21.758Z,10.1
2019-03-10T01:17:21.787Z,10.17
2019-03-10T01:18:21.813Z,10.2
2019-03-10T01:19:21.763Z,10.18
2019-03-10T01:20:21.777Z,10.1
2019-03-10T01:21:21.784Z,10.17
2019-03-10T01:22:21.790Z,10.13
2019-03-10T01:23:21.792Z,10.06
2019-03-10T01:24:21.824Z,10.2
2019-03-10T01:25:21.774Z,10.23
2019-03-10T01:26:21.821Z,10.09
2019-03-10T01:27:21.802Z,10.13
2019-03-10T01:28:21.818Z,10.09
2019-03-10T01:29:21.825Z,10.09
2019-03-10T01:30:21.867Z,10.15
2019-03-10T01:31:21.877Z,10.1
2019-03-10T01:32:21.773Z,10.23
2019-03-10T01:33:21.893Z,10.12
2019-03-10T01:34:21.746Z,10.21
2019-03-10T01:35:21.771Z,10.06
2019-03-10T01:36:21.893Z,10.1
2019-03-10T01:37:21.776Z,10.12
2019-03-10T01:38:21.792Z,10.13
2019-03-10T01:39:21.836Z,10.15
2019-03-10T01:40:21.827Z,10.17
2019-03-10T01:41:22.038Z,10.13
2019-03-10T01:42:21.872Z,10.17
2019-03-10T01:43:21.806Z,10.17
2019-03-10T01:44:21.812Z,10.12
2019-03-10T01:45:21.871Z,10.13
2019-03-10T01:46:21.869Z,10.21
2019-03-10T01:47:21.822Z,10.23
2019-03-10T01:48:21.840Z,10.18
2019-03-10T01:49:21.864Z,10.2
2019-03-10T01:50:21.849Z,10.17
2019-03-10T01:51:21.818Z,10.23
2019-03-10T01:52:21.868Z,10.21
2019-03-10T01:53:31.055Z,10.17
2019-03-10T01:54:22.031Z,10.17
2019-03-10T01:55:21.855Z,10.27
2019-03-10T01:56:21.940Z,10.27
2019-03-10T01:57:21.817Z,10.2
2019-03-10T01:58:21.808Z,10.21
2019-03-10T01:59:21.840Z,10.25
2019-03-10T02:00:21.856Z,10.25
2019-03-10T02:01:21.864Z,10.21
2019-03-10T02:02:30.824Z,10.18
2019-03-10T02:03:22.017Z,10.25
2019-03-10T02:04:21.836Z,10.21
2019-03-10T02:05:21.848Z,10.28
2019-03-10T02:06:21.859Z,10.25
2019-03-10T02:07:21.854Z,10.24
2019-03-10T02:08:21.867Z,10.36
2019-03-10T02:09:21.827Z,10.31
2019-03-10T02:10:21.882Z,10.38
2019-03-10T02:11:21.896Z,10.27
2019-03-10T02:12:21.835Z,10.27
2019-03-10T02:13:21.885Z,10.27
2019-03-10T02:14:21.887Z,10.23
2019-03-10T02:15:21.814Z,10.3
2019-03-10T02:16:21.847Z,10.27
2019-03-10T02:17:21.939Z,10.36
2019-03-10T02:18:21.915Z,10.38
2019-03-10T02:19:21.827Z,10.25
2019-03-10T02:20:21.931Z,10.3
2019-03-10T02:21:21.923Z,10.38
2019-03-10T02:22:21.859Z,10.38
2019-03-10T02:23:21.824Z,10.36
2019-03-10T02:24:29.674Z,10.38
2019-03-10T02:25:23.870Z,10.42
2019-03-10T02:26:21.857Z,10.48
2019-03-10T02:27:21.901Z,10.34
2019-03-10T02:28:21.851Z,10.34
2019-03-10T02:29:21.874Z,10.39
2019-03-10T02:30:21.883Z,10.38
2019-03-10T02:31:22.065Z,10.36
2019-03-10T02:32:21.997Z,10.42
2019-03-10T02:33:22.001Z,10.34
2019-03-10T02:34:21.931Z,10.39
2019-03-10T02:35:21.918Z,10.41
2019-03-10T02:36:21.879Z,10.45
2019-03-10T02:37:22.003Z,10.42
2019-03-10T02:38:21.922Z,10.38
2019-03-10T02:39:21.884Z,10.38
2019-03-10T02:40:21.875Z,10.41
2019-03-10T02:41:21.901Z,10.42
2019-03-10T02:42:21.929Z,10.39
2019-03-10T02:43:21.998Z,10.38
2019-03-10T02:44:21.906Z,10.38
2019-03-10T02:45:21.898Z,10.49
2019-03-10T02:46:21.957Z,10.33
2019-03-10T02:47:21.937Z,10.51
2019-03-10T02:48:21.939Z,10.41
2019-03-10T02:49:21.875Z,10.41
2019-03-10T02:50:21.971Z,10.43
2019-03-10T02:51:21.897Z,10.41
2019-03-10T02:52:21.955Z,10.39
2019-03-10T02:53:21.915Z,10.41
2019-03-10T02:54:21.912Z,10.38
2019-03-10T02:55:21.905Z,10.38
2019-03-10T02:56:21.902Z,10.43
2019-03-10T02:57:21.990Z,10.45
2019-03-10T02:58:22.096Z,10.42
2019-03-10T02:59:21.911Z,10.46
2019-03-10T03:00:21.947Z,10.36
2019-03-10T03:01:21.915Z,10.36
2019-03-10T03:02:21.961Z,10.41
2019-03-10T03:03:21.995Z,10.45
2019-03-10T03:04:22.008Z,10.45
2019-03-10T03:05:21.910Z,10.38
2019-03-10T03:06:21.988Z,10.43
2019-03-10T03:07:22.013Z,10.33
2019-03-10T03:08:22.716Z,10.43
2019-03-10T03:09:21.998Z,10.45
2019-03-10T03:10:22.028Z,10.38
2019-03-10T03:11:21.964Z,10.38
2019-03-10T03:12:22.089Z,10.34
2019-03-10T03:13:21.960Z,10.38
2019-03-10T03:14:21.994Z,10.38
2019-03-10T03:15:22.097Z,10.42
2019-03-10T03:16:21.983Z,10.36
2019-03-10T03:17:22.008Z,10.34
2019-03-10T03:18:22.015Z,10.31
2019-03-10T03:19:23.506Z,10.31
2019-03-10T03:20:21.977Z,10.34
2019-03-10T03:21:21.954Z,10.36
2019-03-10T03:22:22.078Z,10.36
2019-03-10T03:23:22.033Z,10.25
2019-03-10T03:24:21.931Z,10.33
2019-03-10T03:25:22.097Z,10.28
2019-03-10T03:26:22.018Z,10.33
2019-03-10T03:27:21.975Z,10.27
2019-03-10T03:28:22.054Z,10.2
2019-03-10T03:29:21.967Z,10.33
2019-03-10T03:30:22.148Z,10.3
2019-03-10T03:31:22.859Z,10.28
2019-03-10T03:32:21.986Z,10.24
2019-03-10T03:33:22.010Z,10.17
2019-03-10T03:34:22.069Z,10.3
2019-03-10T03:35:21.963Z,10.15
2019-03-10T03:36:21.987Z,10.21
2019-03-10T03:37:21.986Z,10.25
2019-03-10T03:38:22.026Z,10.3
2019-03-10T03:39:21.986Z,10.27
2019-03-10T03:44:38.578Z,10.25
2019-03-10T03:44:50.568Z,10.21
2019-03-10T03:45:50.638Z,10.21
2019-03-10T03:46:50.554Z,10.25
2019-03-10T03:47:50.624Z,10.23
2019-03-10T03:48:50.763Z,10.21
2019-03-10T03:49:50.606Z,10.24
2019-03-10T03:50:50.561Z,10.25
2019-03-10T03:51:50.581Z,10.18
2019-03-10T03:57:07.660Z,10.25
2019-03-10T03:57:19.671Z,10.12
2019-03-10T03:58:19.632Z,10.17
2019-03-10T03:59:19.623Z,10.24
2019-03-10T04:00:19.649Z,10.21
2019-03-10T04:01:19.971Z,10.12
2019-03-10T04:02:19.646Z,10.2
2019-03-10T04:09:47.641Z,10.25
2019-03-10T04:09:59.747Z,10.17
2019-03-10T04:10:59.755Z,10.2
2019-03-10T04:11:59.695Z,10.17
2019-03-10T04:12:59.729Z,10.12
2019-03-10T04:13:59.710Z,10.23
2019-03-10T04:14:59.845Z,10.12
2019-03-10T04:15:59.699Z,10.17
2019-03-10T04:16:59.759Z,10.2
2019-03-10T04:17:59.629Z,10.17
2019-03-10T04:18:59.654Z,10.12
2019-03-10T04:19:59.666Z,10.15
2019-03-10T04:20:59.713Z,10.17
2019-03-10T04:21:59.728Z,10.1
2019-03-10T04:22:59.677Z,10.1
2019-03-10T04:23:59.657Z,10.12
2019-03-10T04:24:59.668Z,10.1
2019-03-10T04:25:59.889Z,10.18
2019-03-10T04:26:59.842Z,10.17
2019-03-10T04:27:59.654Z,10.15
2019-03-10T04:28:59.761Z,10.12
2019-03-10T04:29:59.714Z,10.07
2019-03-10T04:30:59.715Z,10.13
2019-03-10T04:31:59.960Z,10.2
2019-03-10T04:32:59.749Z,10.15
2019-03-10T04:33:59.923Z,10.15
2019-03-10T04:34:59.692Z,10.24
2019-03-10T04:36:00.040Z,10.25
2019-03-10T04:36:59.686Z,10.21
2019-03-10T04:37:59.767Z,10.21
2019-03-10T04:38:59.670Z,10.09
2019-03-10T04:39:59.676Z,10.13
2019-03-10T04:40:59.788Z,10.15
2019-03-10T04:41:59.765Z,10.1
2019-03-10T04:42:59.693Z,10.18
2019-03-10T04:43:59.701Z,10.07
2019-03-10T04:44:59.910Z,10.21
2019-03-10T04:45:59.771Z,10.23
2019-03-10T04:46:59.852Z,10.17
2019-03-10T04:47:59.714Z,10.17
2019-03-10T04:48:59.762Z,10.18
2019-03-10T04:49:59.654Z,10.21
2019-03-10T04:50:59.679Z,10.25
2019-03-10T04:51:59.710Z,10.24
2019-03-10T04:52:59.760Z,10.23
2019-03-10T04:53:59.796Z,10.17
2019-03-10T04:58:28.905Z,10.07
2019-03-10T04:59:28.821Z,10.13
2019-03-10T05:00:28.759Z,10.17
2019-03-10T05:01:28.841Z,10.18
2019-03-10T05:02:28.831Z,10.18
2019-03-10T05:03:28.803Z,10.1
2019-03-10T05:04:28.893Z,10.21
2019-03-10T05:05:28.834Z,10.12
2019-03-10T05:06:28.885Z,10.07
2019-03-10T05:07:28.777Z,10.12
2019-03-10T05:08:28.867Z,9.95
2019-03-10T05:09:28.843Z,9.95
2019-03-10T05:10:30.828Z,9.88
2019-03-10T05:11:28.816Z,9.82
2019-03-10T05:12:28.826Z,9.87
2019-03-10T05:13:28.777Z,9.85
2019-03-10T05:14:28.836Z,9.84
2019-03-10T05:15:28.846Z,9.9
2019-03-10T05:16:28.835Z,9.81
2019-03-10T05:17:28.898Z,9.94
2019-03-10T05:18:28.802Z,9.94
2019-03-10T05:19:28.831Z,9.87
2019-03-10T05:20:28.877Z,9.9
2019-03-10T05:21:28.852Z,9.9
2019-03-10T05:22:28.848Z,9.92
2019-03-10T05:23:28.958Z,9.87
2019-03-10T05:24:28.806Z,9.84
2019-03-10T05:25:28.983Z,9.81
2019-03-10T05:26:28.817Z,9.85
2019-03-10T05:27:28.798Z,9.9
2019-03-10T05:28:28.816Z,9.9
2019-03-10T05:29:28.812Z,9.77
2019-03-10T05:30:28.821Z,9.87
2019-03-10T05:31:28.833Z,9.8
2019-03-10T05:32:29.467Z,9.82
2019-03-10T05:33:28.863Z,9.82
2019-03-10T05:34:28.875Z,9.81
2019-03-10T05:41:07.416Z,9.81
2019-03-10T05:42:07.590Z,9.69
2019-03-10T05:43:07.392Z,9.69
2019-03-10T05:44:07.575Z,9.74
2019-03-10T05:45:07.508Z,9.66
2019-03-10T05:46:07.383Z,9.67
2019-03-10T05:47:07.349Z,9.73
2019-03-10T05:48:07.395Z,9.73
2019-03-10T05:49:07.403Z,9.69
2019-03-10T05:50:07.426Z,9.64
2019-03-10T05:51:07.481Z,9.67
2019-03-10T05:52:07.459Z,9.8
2019-03-10T05:53:07.443Z,9.66
2019-03-10T05:54:07.553Z,9.63
2019-03-10T05:55:07.439Z,9.69
2019-03-10T05:56:07.483Z,9.67
2019-03-10T05:57:07.496Z,9.63
2019-03-10T05:58:07.527Z,9.63
2019-03-10T05:59:07.452Z,9.56
2019-03-10T06:00:07.406Z,9.52
2019-03-10T06:01:07.408Z,9.44
2019-03-10T06:02:07.414Z,9.47
2019-03-10T06:03:07.585Z,9.51
2019-03-10T06:04:07.462Z,9.54
2019-03-10T06:05:09.006Z,9.49
2019-03-10T06:06:07.587Z,9.49
2019-03-10T06:07:07.480Z,9.48
2019-03-10T06:08:07.500Z,9.47
2019-03-10T06:09:07.531Z,9.3
2019-03-10T06:10:07.540Z,9.3
2019-03-10T06:11:07.444Z,9.33
2019-03-10T06:12:07.511Z,9.18
2019-03-10T06:13:07.494Z,9.24
2019-03-10T06:14:08.408Z,9.22
2019-03-10T06:20:47.164Z,9.16
2019-03-10T06:21:47.070Z,9.09
2019-03-10T06:22:47.207Z,8.96
2019-03-10T06:23:47.052Z,9.09
2019-03-10T06:24:47.161Z,9.09
2019-03-10T06:25:47.178Z,9.03
2019-03-10T06:26:47.140Z,9.03
2019-03-10T06:27:47.043Z,9
2019-03-10T06:28:47.152Z,9.11
2019-03-10T06:29:47.111Z,9.12
2019-03-10T06:30:47.188Z,9.05
2019-03-10T06:31:47.179Z,9.03
2019-03-10T06:32:47.090Z,9
2019-03-10T06:33:47.234Z,9.05
2019-03-10T06:34:47.124Z,9.03
2019-03-10T06:35:47.107Z,9.12
2019-03-10T06:36:47.116Z,8.97
2019-03-10T06:37:47.141Z,8.92
2019-03-10T06:38:47.117Z,8.89
2019-03-10T06:39:47.117Z,8.97
2019-03-10T06:40:47.102Z,8.96
2019-03-10T06:41:47.128Z,8.97
2019-03-10T06:42:47.114Z,8.93
2019-03-10T06:43:47.111Z,8.89
2019-03-10T06:44:47.140Z,8.96
2019-03-10T06:45:47.129Z,8.89
2019-03-10T06:46:47.162Z,8.99
2019-03-10T06:47:47.151Z,8.89
2019-03-10T06:48:47.115Z,8.95
2019-03-10T06:49:47.134Z,8.96
2019-03-10T06:50:47.107Z,8.86
2019-03-10T06:51:47.092Z,8.95
2019-03-10T07:02:46.988Z,9
2019-03-10T07:03:46.953Z,8.89
2019-03-10T07:04:46.976Z,8.95
2019-03-10T07:05:46.980Z,8.89
2019-03-10T07:06:46.971Z,9.02
2019-03-10T07:07:46.994Z,8.95
2019-03-10T07:08:46.970Z,8.95
2019-03-10T07:09:46.978Z,8.99
2019-03-10T07:10:46.997Z,9
2019-03-10T07:11:47.377Z,8.97
2019-03-10T07:12:47.034Z,8.89
2019-03-10T07:19:26.627Z,8.92
2019-03-10T07:20:26.606Z,8.84
2019-03-10T07:21:26.645Z,8.93
2019-03-10T07:22:26.660Z,8.89
2019-03-10T07:23:26.661Z,8.81
2019-03-10T07:24:26.617Z,8.82
2019-03-10T07:25:26.603Z,8.82
2019-03-10T07:26:26.679Z,8.69
2019-03-10T07:27:26.649Z,8.74
2019-03-10T07:28:26.786Z,8.82
2019-03-10T07:29:26.713Z,8.9
2019-03-10T07:30:26.668Z,8.82
2019-03-10T07:31:26.617Z,8.89
2019-03-10T07:32:26.694Z,8.78
2019-03-10T07:33:26.673Z,8.81
2019-03-10T07:34:26.612Z,8.71
2019-03-10T07:35:26.677Z,8.78
2019-03-10T07:36:26.609Z,8.72
2019-03-10T07:41:44.603Z,8.78
2019-03-10T07:41:56.937Z,8.74
2019-03-10T07:42:56.534Z,8.82
2019-03-10T07:43:56.666Z,8.75
2019-03-10T07:44:56.605Z,8.71
2019-03-10T07:45:56.532Z,8.77
2019-03-10T07:46:56.577Z,8.72
2019-03-10T07:47:56.579Z,8.79
2019-03-10T07:48:56.589Z,8.86
2019-03-10T07:49:56.732Z,8.74
2019-03-10T07:50:56.517Z,8.72
2019-03-10T07:51:56.585Z,8.66
2019-03-10T07:52:56.520Z,8.72
2019-03-10T07:53:56.542Z,8.69
2019-03-10T07:54:56.566Z,8.59
2019-03-10T07:55:56.558Z,8.63
2019-03-10T07:56:56.719Z,8.69
2019-03-10T07:57:56.611Z,8.66
2019-03-10T07:58:56.589Z,8.69
2019-03-10T08:01:15.835Z,8.68
2019-03-10T08:02:15.870Z,8.72
2019-03-10T08:03:15.926Z,8.68
2019-03-10T08:04:15.807Z,8.59
2019-03-10T08:05:15.856Z,8.63
2019-03-10T08:06:15.819Z,8.6
2019-03-10T08:07:15.893Z,8.56
2019-03-10T08:08:15.918Z,8.61
2019-03-10T08:09:15.840Z,8.64
2019-03-10T08:10:15.937Z,8.63
2019-03-10T08:11:15.847Z,8.69
2019-03-10T08:15:45.937Z,8.66
2019-03-10T08:16:45.912Z,8.68
2019-03-10T08:17:45.879Z,8.69
2019-03-10T08:18:45.895Z,8.6
2019-03-10T08:19:45.979Z,8.6
2019-03-10T08:20:45.890Z,8.61
2019-03-10T08:21:45.887Z,8.69
2019-03-10T08:22:45.928Z,8.69
2019-03-10T08:23:46.022Z,8.72
2019-03-10T08:24:45.884Z,8.72
2019-03-10T08:25:45.923Z,8.77
2019-03-10T08:26:45.904Z,8.72
2019-03-10T08:27:45.926Z,8.75
2019-03-10T08:28:45.967Z,8.75
2019-03-10T08:29:45.906Z,8.66
2019-03-10T08:30:45.934Z,8.71
2019-03-10T08:31:45.984Z,8.75
2019-03-10T08:32:45.961Z,8.74
2019-03-10T08:33:45.947Z,8.77
2019-03-10T08:34:45.940Z,8.72
2019-03-10T08:35:45.979Z,8.79
2019-03-10T08:36:45.916Z,8.69
2019-03-10T08:37:45.981Z,8.72
2019-03-10T08:38:45.936Z,8.66
2019-03-10T08:39:46.005Z,8.75
2019-03-10T08:40:45.974Z,8.75
2019-03-10T08:41:45.978Z,8.77
2019-03-10T08:42:46.068Z,8.82
2019-03-10T08:43:45.960Z,8.78
2019-03-10T08:44:45.967Z,8.82
2019-03-10T08:45:46.102Z,8.89
2019-03-10T08:46:45.965Z,8.78
2019-03-10T08:47:45.945Z,8.84
2019-03-10T08:48:45.970Z,8.78
2019-03-10T08:49:51.500Z,8.72
2019-03-10T08:50:46.010Z,8.75
2019-03-10T08:51:45.981Z,8.79
2019-03-10T08:52:45.982Z,8.74
2019-03-10T08:53:46.000Z,8.77
2019-03-10T08:54:45.962Z,8.72
2019-03-10T08:55:45.975Z,8.78
2019-03-10T08:56:45.975Z,8.86
2019-03-10T08:57:46.055Z,8.79
2019-03-10T08:58:46.061Z,8.79
2019-03-10T08:59:46.040Z,8.81
2019-03-10T09:00:46.042Z,8.92
2019-03-10T09:01:46.421Z,8.79
2019-03-10T09:02:46.015Z,8.86
2019-03-10T09:03:46.008Z,8.89
2019-03-10T09:04:46.202Z,8.87
2019-03-10T09:05:46.075Z,8.95
2019-03-10T09:06:47.702Z,8.92
2019-03-10T09:07:45.986Z,9
2019-03-10T09:08:46.081Z,9.08
2019-03-10T09:09:48.770Z,8.97
2019-03-10T09:10:46.015Z,9
2019-03-10T09:11:46.122Z,9.03
2019-03-10T09:12:46.085Z,9.19
2019-03-10T09:13:46.033Z,9.21
2019-03-10T09:14:46.008Z,9.26
2019-03-10T09:15:46.922Z,9.33
2019-03-10T09:16:46.047Z,9.33
2019-03-10T09:17:46.014Z,9.45
2019-03-10T09:18:46.383Z,9.42
2019-03-10T09:19:46.055Z,9.47
2019-03-10T09:20:46.073Z,9.47
2019-03-10T09:21:46.214Z,9.47
2019-03-10T09:22:46.021Z,9.49
2019-03-10T09:23:46.247Z,9.56
2019-03-10T09:24:46.073Z,9.58
2019-03-10T09:25:46.066Z,9.58
2019-03-10T09:26:46.046Z,9.58
2019-03-10T09:27:46.051Z,9.67
2019-03-10T09:28:46.087Z,9.69
2019-03-10T09:29:46.098Z,9.7
2019-03-10T09:30:46.074Z,9.77
2019-03-10T09:31:46.279Z,9.73
2019-03-10T09:32:46.111Z,9.82
2019-03-10T09:33:46.439Z,9.73
2019-03-10T09:34:46.095Z,9.91
2019-03-10T09:35:46.224Z,9.87
2019-03-10T09:36:46.121Z,9.91
2019-03-10T09:37:46.192Z,9.91
2019-03-10T09:38:46.161Z,10.07
2019-03-10T09:39:46.095Z,10.06
2019-03-10T09:40:46.103Z,10.09
2019-03-10T09:41:46.109Z,10.17
2019-03-10T09:42:46.116Z,10.12
2019-03-10T09:43:46.127Z,10.2
2019-03-10T09:51:13.932Z,10.33
2019-03-10T09:51:26.592Z,10.38
2019-03-10T09:52:26.657Z,10.38
2019-03-10T09:53:26.498Z,10.41
2019-03-10T09:54:26.636Z,10.36
2019-03-10T09:55:26.723Z,10.41
2019-03-10T09:56:26.478Z,10.51
2019-03-10T09:57:26.590Z,10.48
2019-03-10T09:58:26.450Z,10.51
2019-03-10T09:59:26.449Z,10.53
2019-03-10T10:00:26.811Z,10.51
2019-03-10T10:01:27.044Z,10.48
2019-03-10T10:02:26.521Z,10.55
2019-03-10T10:03:26.682Z,10.55
2019-03-10T10:04:26.919Z,10.64
2019-03-10T10:05:26.674Z,10.68
2019-03-10T10:06:27.024Z,10.62
2019-03-10T10:07:27.147Z,10.65
2019-03-10T10:08:26.916Z,10.76
2019-03-10T10:09:27.250Z,10.8
2019-03-10T10:10:27.184Z,10.82
2019-03-10T10:11:27.124Z,10.76
2019-03-10T10:12:26.996Z,10.87
2019-03-10T10:13:26.764Z,10.95
2019-03-10T10:14:27.264Z,10.87
2019-03-10T10:15:27.048Z,11.04
2019-03-10T10:16:26.789Z,11.13
2019-03-10T10:17:27.011Z,11.15
2019-03-10T10:18:27.375Z,11.22
2019-03-10T10:19:27.214Z,11.33
2019-03-10T10:20:35.839Z,11.4
2019-03-10T10:21:27.448Z,11.45
2019-03-10T10:22:27.100Z,11.41
2019-03-10T10:23:27.277Z,11.41
2019-03-10T10:24:27.109Z,11.53
2019-03-10T10:25:27.125Z,11.56
2019-03-10T10:26:27.257Z,11.59
2019-03-10T10:28:27.231Z,11.74
2019-03-10T10:29:27.489Z,11.8
2019-03-10T10:30:27.290Z,11.86
2019-03-10T10:31:27.447Z,11.97
2019-03-10T10:32:27.416Z,12.07
2019-03-10T10:33:27.536Z,12.02
2019-03-10T10:34:27.498Z,12.08
2019-03-10T10:35:27.369Z,12.18
2019-03-10T10:36:27.448Z,12.25
2019-03-10T10:37:27.414Z,12.23
2019-03-10T10:38:27.410Z,12.3
2019-03-10T10:39:27.627Z,12.23
2019-03-10T10:40:27.510Z,12.29
2019-03-10T10:41:27.469Z,12.32
2019-03-10T10:42:27.411Z,12.35
2019-03-10T10:43:27.801Z,12.32
2019-03-10T10:44:27.634Z,12.37
2019-03-10T10:45:29.329Z,12.5
2019-03-10T10:46:27.504Z,12.48
2019-03-10T10:47:27.457Z,12.47
2019-03-10T10:48:27.489Z,12.54
2019-03-10T10:49:27.379Z,12.53
2019-03-10T10:50:27.588Z,12.54
2019-03-10T10:51:29.781Z,12.63
2019-03-10T10:52:27.387Z,12.45
2019-03-10T10:53:27.876Z,12.45
2019-03-10T10:54:27.398Z,12.51
2019-03-10T10:55:30.391Z,12.63
2019-03-10T10:56:27.602Z,12.4
2019-03-10T10:57:27.514Z,12.53
2019-03-10T10:58:27.489Z,12.55
2019-03-10T10:59:27.335Z,12.61
2019-03-10T11:00:27.236Z,12.7
2019-03-10T11:01:27.211Z,12.57
2019-03-10T11:02:28.141Z,12.72
2019-03-10T11:03:28.533Z,12.75
2019-03-10T11:04:26.889Z,12.87
2019-03-10T11:05:27.366Z,13.01
2019-03-10T11:06:27.291Z,13.09
2019-03-10T11:07:27.066Z,13.11
2019-03-10T11:08:27.215Z,13.21
2019-03-10T11:09:27.415Z,13.13
2019-03-10T11:10:27.338Z,13.17
2019-03-10T11:11:27.404Z,13.28
2019-03-10T11:12:27.510Z,13.28
2019-03-10T11:13:28.169Z,13.24
2019-03-10T11:14:27.420Z,13.37
2019-03-10T11:15:27.346Z,13.45
2019-03-10T11:16:27.398Z,13.46
2019-03-10T11:17:27.379Z,13.55
2019-03-10T11:18:27.347Z,13.54
2019-03-10T11:19:27.380Z,13.54
2019-03-10T11:20:27.360Z,13.61
2019-03-10T11:21:27.465Z,13.61
2019-03-10T11:22:27.870Z,13.64
2019-03-10T11:23:28.136Z,13.71
2019-03-10T11:24:27.404Z,13.83
2019-03-10T11:25:27.558Z,13.93
2019-03-10T11:26:28.384Z,14.11
2019-03-10T11:27:27.568Z,14.34
2019-03-10T11:28:27.674Z,14.19
2019-03-10T11:29:27.378Z,14.38
2019-03-10T11:30:27.383Z,14.26
2019-03-10T11:31:28.088Z,14.22
2019-03-10T11:32:31.293Z,14.3
2019-03-10T11:34:00.955Z,14.41
2019-03-10T11:34:27.340Z,14.41
2019-03-10T11:35:27.523Z,14.36
2019-03-10T11:36:27.447Z,14.41
2019-03-10T11:37:27.597Z,14.44
2019-03-10T11:38:27.650Z,14.3
2019-03-10T11:39:27.548Z,14.28
2019-03-10T11:40:27.490Z,14.33
2019-03-10T11:41:36.791Z,14.31
2019-03-10T11:42:27.482Z,14.28
2019-03-10T11:43:29.254Z,14.23
2019-03-10T11:44:27.646Z,14.19
2019-03-10T11:45:27.801Z,14.22
2019-03-10T11:46:27.439Z,14.31
2019-03-10T11:47:27.286Z,14.19
2019-03-10T11:48:27.404Z,14.16
2019-03-10T11:49:27.451Z,14.33
2019-03-10T11:50:27.784Z,14.33
2019-03-10T11:51:27.535Z,14.26
2019-03-10T11:52:27.698Z,14.37
2019-03-10T11:53:28.934Z,14.37
2019-03-10T11:54:27.544Z,14.2
2019-03-10T11:55:27.805Z,14.22
2019-03-10T11:56:27.562Z,14.22
2019-03-10T11:57:27.768Z,14.16
2019-03-10T11:58:29.915Z,14.16
2019-03-10T11:59:27.637Z,14.08
2019-03-10T12:00:27.800Z,14.15
2019-03-10T12:01:27.634Z,14.3
2019-03-10T12:02:27.714Z,14.36
2019-03-10T12:03:27.822Z,14.41
2019-03-10T12:04:27.695Z,14.67
2019-03-10T12:05:27.780Z,14.73
2019-03-10T12:06:27.792Z,14.86
2019-03-10T12:07:27.817Z,14.67
2019-03-10T12:08:28.514Z,14.89
2019-03-10T12:09:27.709Z,14.73
2019-03-10T12:10:28.122Z,14.79
2019-03-10T12:11:27.904Z,14.71
2019-03-10T12:12:27.888Z,14.81
2019-03-10T12:13:27.888Z,14.7
2019-03-10T12:14:27.755Z,14.66
2019-03-10T12:15:27.902Z,14.62
2019-03-10T12:16:27.754Z,14.52
2019-03-10T12:17:27.638Z,14.45
2019-03-10T12:18:27.851Z,14.52
2019-03-10T12:19:27.684Z,14.51
2019-03-10T12:20:27.657Z,14.59
2019-03-10T12:21:27.741Z,14.66
2019-03-10T12:22:31.545Z,14.68
2019-03-10T12:23:27.949Z,14.58
2019-03-10T12:24:27.853Z,14.59
2019-03-10T12:25:28.234Z,14.55
2019-03-10T12:26:27.777Z,14.62
2019-03-10T12:27:27.890Z,14.62
2019-03-10T12:28:27.844Z,14.59
2019-03-10T12:29:28.700Z,14.53
2019-03-10T12:30:27.796Z,14.59
2019-03-10T12:31:27.919Z,14.53
2019-03-10T12:32:27.820Z,14.4
2019-03-10T12:33:27.868Z,14.36
2019-03-10T12:34:27.741Z,14.28
2019-03-10T12:35:37.484Z,14.19
2019-03-10T12:36:27.826Z,14.16
2019-03-10T12:37:35.173Z,14.12
2019-03-10T12:38:27.852Z,14.03
2019-03-10T12:39:27.929Z,14.04
2019-03-10T12:40:28.113Z,13.97
2019-03-10T12:41:27.874Z,13.78
2019-03-10T12:42:27.789Z,13.79
2019-03-10T12:43:27.986Z,13.54
2019-03-10T12:44:27.755Z,13.58
2019-03-10T12:45:27.790Z,13.3
2019-03-10T12:46:27.869Z,13.49
2019-03-10T12:47:27.907Z,13.26
2019-03-10T12:48:28.014Z,13.26
2019-03-10T12:49:27.788Z,13.09
2019-03-10T12:50:27.659Z,13.12
2019-03-10T12:51:28.508Z,13.12
2019-03-10T12:52:27.699Z,13.13
2019-03-10T12:53:27.887Z,13.05
2019-03-10T12:54:28.825Z,13.19
2019-03-10T12:55:27.888Z,13.13
2019-03-10T12:56:27.830Z,13.09
2019-03-10T12:57:27.832Z,13.2
2019-03-10T12:58:27.940Z,13.24
2019-03-10T12:59:27.939Z,13.23
2019-03-10T13:00:29.270Z,13.33
2019-03-10T13:01:27.913Z,13.42
2019-03-10T13:02:27.878Z,13.52
2019-03-10T13:03:28.117Z,13.49
2019-03-10T13:04:27.828Z,13.61
2019-03-10T13:05:28.354Z,13.65
2019-03-10T13:06:27.947Z,13.73
2019-03-10T13:07:28.027Z,13.71
2019-03-10T13:08:27.978Z,13.76
2019-03-10T13:09:27.863Z,13.76
2019-03-10T13:10:29.455Z,13.76
2019-03-10T13:11:27.965Z,13.83
2019-03-10T13:12:27.942Z,13.82
2019-03-10T13:13:28.029Z,13.82
2019-03-10T13:14:28.012Z,13.85
2019-03-10T13:15:27.962Z,13.86
2019-03-10T13:16:27.809Z,13.93
2019-03-10T13:17:27.933Z,13.86
2019-03-10T13:18:28.000Z,13.83
2019-03-10T13:19:27.984Z,13.82
2019-03-10T13:20:38.686Z,13.8
2019-03-10T13:21:29.435Z,13.82
2019-03-10T13:22:27.992Z,13.8
2019-03-10T13:23:28.044Z,13.93
2019-03-10T13:24:27.944Z,14.07
2019-03-10T13:25:28.142Z,14.23
2019-03-10T13:26:27.931Z,14.53
2019-03-10T13:27:28.126Z,14.73
2019-03-10T13:28:27.859Z,14.73
2019-03-10T13:29:27.964Z,14.96
2019-03-10T13:30:28.095Z,14.89
2019-03-10T13:31:27.944Z,15.02
2019-03-10T13:32:28.154Z,15.04
2019-03-10T13:33:28.251Z,15.15
2019-03-10T13:34:28.000Z,15.17
2019-03-10T13:35:28.058Z,15.07
2019-03-10T13:36:28.070Z,15.43
2019-03-10T13:37:27.895Z,15.35
2019-03-10T13:38:28.043Z,15.23
2019-03-10T13:39:27.942Z,15.37
2019-03-10T13:40:27.944Z,15.63
2019-03-10T13:41:28.004Z,15.54
2019-03-10T13:42:28.012Z,15.73
2019-03-10T13:43:28.077Z,15.62
2019-03-10T13:44:28.201Z,15.5
2019-03-10T13:45:28.154Z,15.43
2019-03-10T13:46:28.090Z,15.25
2019-03-10T13:47:27.911Z,15.23
2019-03-10T13:48:28.619Z,15.18
2019-03-10T13:49:28.015Z,15.11
2019-03-10T13:50:28.079Z,15.11
2019-03-10T13:51:27.979Z,15.12
2019-03-10T13:52:28.018Z,15
2019-03-10T13:53:28.159Z,14.89
2019-03-10T13:54:28.121Z,14.93
2019-03-10T13:55:28.099Z,14.9
2019-03-10T13:56:27.980Z,14.82
2019-03-10T13:57:28.070Z,14.78
2019-03-10T13:58:28.224Z,14.67
2019-03-10T13:59:28.036Z,14.62
2019-03-10T14:00:28.233Z,14.66
2019-03-10T14:01:27.941Z,14.78
2019-03-10T14:02:27.942Z,14.67